createdAt,value
2019-04-27T00:00:49.028Z,11.04
2019-04-27T00:04:57.287Z,10.99
2019-04-27T00:09:03.497Z,11.04
2019-04-27T00:13:07.505Z,11.08
2019-04-27T00:17:41.313Z,10.95
2019-04-27T00:21:40.790Z,10.92
2019-04-27T00:25:44.279Z,10.91
2019-04-27T00:29:48.138Z,10.92
2019-04-27T00:33:53.441Z,10.83
2019-04-27T00:38:15.095Z,10.73
2019-04-27T00:42:18.649Z,10.66
2019-04-27T00:46:22.895Z,10.75
2019-04-27T00:50:26.694Z,10.77
2019-04-27T00:54:30.193Z,10.88
2019-04-27T00:58:38.415Z,10.83
2019-04-27T01:02:43.890Z,10.84
2019-04-27T01:06:47.566Z,10.74
2019-04-27T01:10:51.396Z,10.73
2019-04-27T01:14:54.885Z,10.65
2019-04-27T01:18:58.956Z,10.62
2019-04-27T01:23:02.507Z,10.64
2019-04-27T01:27:18.820Z,10.69
2019-04-27T01:31:23.391Z,10.72
2019-04-27T01:35:26.887Z,10.76
2019-04-27T01:39:30.655Z,10.74
2019-04-27T01:43:34.141Z,10.79
2019-04-27T01:47:39.159Z,10.77
2019-04-27T01:51:42.861Z,10.79
2019-04-27T01:55:46.351Z,10.70
2019-04-27T01:59:50.279Z,10.73
2019-04-27T02:03:55.397Z,10.65
2019-04-27T02:07:59.373Z,10.65
2019-04-27T02:12:03.117Z,10.71
2019-04-27T02:16:08.907Z,10.71
2019-04-27T02:20:12.734Z,10.78
2019-04-27T02:24:16.203Z,10.77
2019-04-27T02:28:27.392Z,10.76
2019-04-27T02:32:32.893Z,10.66
2019-04-27T02:36:39.010Z,10.62
2019-04-27T02:40:51.505Z,10.54
2019-04-27T02:44:55.227Z,10.63
2019-04-27T02:49:03.179Z,10.56
2019-04-27T02:53:03.935Z,10.60
2019-04-27T02:57:09.888Z,10.53
2019-04-27T03:01:12.808Z,10.42
2019-04-27T03:05:22.116Z,10.38
2019-04-27T03:09:25.622Z,10.33
2019-04-27T03:13:33.285Z,10.30
2019-04-27T03:17:54.429Z,10.37
2019-04-27T03:22:05.377Z,10.33
2019-04-27T03:26:16.377Z,10.27
2019-04-27T03:30:22.607Z,10.22
2019-04-27T03:34:25.198Z,10.21
2019-04-27T03:38:30.145Z,10.32
2019-04-27T03:42:37.347Z,10.13
2019-04-27T03:46:40.159Z,10.11
2019-04-27T03:50:50.418Z,10.09
2019-04-27T03:55:10.469Z,10.17
2019-04-27T03:59:15.630Z,10.10
2019-04-27T04:03:20.295Z,10.15
2019-04-27T04:07:24.433Z,10.09
2019-04-27T04:11:35.905Z,10.17
2019-04-27T04:15:46.857Z,10.05
2019-04-27T04:19:57.561Z,10.06
2019-04-27T04:23:55.641Z,9.99
2019-04-27T04:28:00.594Z,9.95
2019-04-27T04:32:04.453Z,9.84
2019-04-27T04:36:10.109Z,9.81
2019-04-27T04:40:13.314Z,9.71
2019-04-27T04:44:34.716Z,9.75
2019-04-27T04:48:40.447Z,9.71
2019-04-27T04:52:43.984Z,9.54
2019-04-27T04:56:49.390Z,9.61
2019-04-27T05:00:52.691Z,9.83
2019-04-27T05:04:56.202Z,9.92
2019-04-27T05:09:00.143Z,9.98
2019-04-27T05:13:03.646Z,10.19
2019-04-27T05:17:07.177Z,10.16
2019-04-27T05:21:18.564Z,10.16
2019-04-27T05:25:22.448Z,10.68
2019-04-27T05:29:26.101Z,10.68
2019-04-27T05:33:29.598Z,10.86
2019-04-27T05:37:33.111Z,10.88
2019-04-27T05:41:37.397Z,10.78
2019-04-27T05:46:01.341Z,10.67
2019-04-27T05:50:09.075Z,10.62
2019-04-27T05:54:12.992Z,10.63
2019-04-27T05:58:16.495Z,11.13
2019-04-27T06:02:20.359Z,11.29
2019-04-27T06:06:25.551Z,11.78
2019-04-27T06:10:32.033Z,12.07
2019-04-27T06:14:35.627Z,12.76
2019-04-27T06:18:39.523Z,13.33
2019-04-27T06:22:43.778Z,13.48
2019-04-27T06:26:47.272Z,13.90
2019-04-27T06:30:51.150Z,14.56
2019-04-27T06:34:54.646Z,15.27
2019-04-27T06:38:58.948Z,14.94
2019-04-27T06:43:02.907Z,14.83
2019-04-27T06:47:06.458Z,14.89
2019-04-27T06:51:10.016Z,15.00
2019-04-27T06:55:14.039Z,15.78
2019-04-27T06:59:18.633Z,17.00
2019-04-27T07:03:22.277Z,17.05
2019-04-27T07:07:25.785Z,17.71
2019-04-27T07:11:29.702Z,18.32
2019-04-27T07:15:33.438Z,17.60
2019-04-27T07:19:37.274Z,16.62
2019-04-27T07:23:48.839Z,16.75
2019-04-27T07:27:52.689Z,18.22
2019-04-27T07:31:56.191Z,20.15
2019-04-27T07:35:59.693Z,23.16
2019-04-27T07:40:03.608Z,25.51
2019-04-27T07:44:15.146Z,25.43
2019-04-27T07:48:18.900Z,27.24
2019-04-27T07:52:22.406Z,26.58
2019-04-27T07:56:25.900Z,26.87
2019-04-27T08:00:29.482Z,28.85
2019-04-27T08:04:32.994Z,29.07
2019-04-27T08:08:36.461Z,29.44
2019-04-27T08:12:39.958Z,29.75
2019-04-27T08:16:43.475Z,29.32
2019-04-27T08:20:46.950Z,29.32
2019-04-27T08:24:50.645Z,29.75
2019-04-27T08:29:08.604Z,29.01
2019-04-27T08:33:13.759Z,31.14
2019-04-27T08:37:18.798Z,31.09
2019-04-27T08:41:22.426Z,30.49
2019-04-27T08:45:25.915Z,30.51
2019-04-27T08:49:29.404Z,30.04
2019-04-27T08:53:32.906Z,30.70
2019-04-27T08:57:36.405Z,31.00
2019-04-27T09:01:39.946Z,31.80
2019-04-27T09:05:43.432Z,32.80
2019-04-27T09:09:49.815Z,31.59
2019-04-27T09:13:54.994Z,32.44
2019-04-27T09:17:59.809Z,32.04
2019-04-27T09:22:16.149Z,32.70
2019-04-27T09:26:14.812Z,32.24
2019-04-27T09:30:19.191Z,30.71
2019-04-27T09:34:22.650Z,27.83
2019-04-27T09:38:26.568Z,29.79
2019-04-27T09:42:30.462Z,30.02
2019-04-27T09:46:36.383Z,30.72
2019-04-27T09:50:40.354Z,29.45
2019-04-27T09:54:43.938Z,28.12
2019-04-27T09:58:47.394Z,27.85
2019-04-27T10:02:50.883Z,26.94
2019-04-27T10:06:54.374Z,25.70
2019-04-27T10:10:57.877Z,22.89
2019-04-27T10:15:01.360Z,24.37
2019-04-27T10:19:05.019Z,27.06
2019-04-27T10:23:08.514Z,29.37
2019-04-27T10:27:12.053Z,26.86
2019-04-27T10:31:15.884Z,26.15
2019-04-27T10:35:19.797Z,23.91
2019-04-27T10:39:23.286Z,23.73
2019-04-27T10:43:26.779Z,22.99
2019-04-27T10:47:30.648Z,21.52
2019-04-27T10:51:36.327Z,21.41
2019-04-27T10:55:39.848Z,22.32
2019-04-27T10:59:43.656Z,23.55
2019-04-27T11:03:57.554Z,26.18
2019-04-27T11:08:01.206Z,26.42
2019-04-27T11:12:06.759Z,25.17
2019-04-27T11:16:10.688Z,22.86
2019-04-27T11:20:15.097Z,20.26
2019-04-27T11:24:18.589Z,20.68
2019-04-27T11:28:22.081Z,20.35
2019-04-27T11:32:25.871Z,20.83
2019-04-27T11:36:30.983Z,20.41
2019-04-27T11:40:34.462Z,19.50
2019-04-27T11:44:37.954Z,19.07
2019-04-27T11:48:43.192Z,19.05
2019-04-27T11:52:47.470Z,18.78
2019-04-27T11:56:50.957Z,18.63
2019-04-27T12:00:55.950Z,18.13
2019-04-27T12:05:07.647Z,18.37
2019-04-27T12:09:11.402Z,18.89
2019-04-27T12:13:18.142Z,19.17
2019-04-27T12:17:21.623Z,18.60
2019-04-27T12:21:25.524Z,18.16
2019-04-27T12:25:31.818Z,17.78
2019-04-27T12:29:53.749Z,17.51
2019-04-27T12:33:59.028Z,18.33
2019-04-27T12:38:02.691Z,18.90
2019-04-27T12:42:06.189Z,19.71
2019-04-27T12:46:09.670Z,20.97
2019-04-27T12:50:14.517Z,21.60
2019-04-27T12:54:19.679Z,22.56
2019-04-27T12:58:27.220Z,21.85
2019-04-27T13:02:36.457Z,21.75
2019-04-27T13:06:40.031Z,21.94
2019-04-27T13:10:45.160Z,21.53
2019-04-27T13:14:48.645Z,21.48
2019-04-27T13:18:52.131Z,20.44
2019-04-27T13:22:55.621Z,20.23
2019-04-27T13:26:59.103Z,20.24
2019-04-27T13:31:02.605Z,20.26
2019-04-27T13:35:07.981Z,20.47
2019-04-27T13:39:11.555Z,20.76
2019-04-27T13:43:16.793Z,20.60
2019-04-27T13:47:21.914Z,20.63
2019-04-27T13:51:32.791Z,19.76
2019-04-27T13:55:36.286Z,18.44
2019-04-27T13:59:41.704Z,17.67
2019-04-27T14:03:46.954Z,17.43
2019-04-27T14:07:50.791Z,17.06
2019-04-27T14:11:57.624Z,17.42
2019-04-27T14:16:01.234Z,17.04
2019-04-27T14:20:05.619Z,17.17
2019-04-27T14:24:09.922Z,17.16
2019-04-27T14:28:13.787Z,17.16
2019-04-27T14:32:18.768Z,17.02
2019-04-27T14:36:22.384Z,16.76
2019-04-27T14:40:28.737Z,16.67
2019-04-27T14:44:32.381Z,16.58
2019-04-27T14:48:35.854Z,16.78
2019-04-27T14:52:40.894Z,16.32
2019-04-27T14:56:44.918Z,16.50
2019-04-27T15:00:49.867Z,16.54
2019-04-27T15:04:53.808Z,15.97
2019-04-27T15:08:57.242Z,16.13
2019-04-27T15:13:01.538Z,16.15
2019-04-27T15:17:06.884Z,16.23
2019-04-27T15:21:10.672Z,16.24
2019-04-27T15:25:15.710Z,16.31
2019-04-27T15:29:25.362Z,15.98
2019-04-27T15:33:46.821Z,15.76
2019-04-27T15:37:50.959Z,15.35
2019-04-27T15:42:07.976Z,15.29
2019-04-27T15:46:08.301Z,15.01
2019-04-27T15:50:12.176Z,14.93
2019-04-27T15:54:15.664Z,14.93
2019-04-27T15:58:24.855Z,14.97
2019-04-27T16:02:24.825Z,14.80
2019-04-27T16:06:28.319Z,14.76
2019-04-27T16:10:32.698Z,14.81
2019-04-27T16:14:40.885Z,14.75
2019-04-27T16:18:42.623Z,14.95
2019-04-27T16:22:46.181Z,14.77
2019-04-27T16:26:52.226Z,14.75
2019-04-27T16:30:55.554Z,14.61
2019-04-27T16:34:59.314Z,15.07
2019-04-27T16:39:08.178Z,14.72
2019-04-27T16:43:09.681Z,14.82
2019-04-27T16:47:18.775Z,14.70
2019-04-27T16:51:18.842Z,14.69
2019-04-27T16:55:22.352Z,14.78
2019-04-27T16:59:40.903Z,14.58
2019-04-27T17:03:31.573Z,14.34
2019-04-27T17:07:37.622Z,14.25
2019-04-27T17:11:43.608Z,14.07
2019-04-27T17:15:55.060Z,13.86
2019-04-27T17:20:01.327Z,13.58
2019-04-27T17:24:05.130Z,13.56
2019-04-27T17:28:12.854Z,13.44
2019-04-27T17:32:20.700Z,13.44
2019-04-27T17:36:24.192Z,13.38
2019-04-27T17:40:29.823Z,13.38
2019-04-27T17:44:32.887Z,13.31
2019-04-27T17:48:37.962Z,13.02
2019-04-27T17:52:41.712Z,13.01
2019-04-27T17:56:49.564Z,13.00
2019-04-27T18:00:50.706Z,12.96
2019-04-27T18:04:54.184Z,12.66
2019-04-27T18:09:00.523Z,12.64
2019-04-27T18:13:02.897Z,12.57
2019-04-27T18:17:10.348Z,12.42
2019-04-27T18:21:12.719Z,12.37
2019-04-27T18:25:18.697Z,12.27
2019-04-27T18:29:27.051Z,12.34
2019-04-27T18:33:32.547Z,12.28
2019-04-27T18:37:34.588Z,12.20
2019-04-27T18:41:44.474Z,12.13
2019-04-27T18:45:44.895Z,12.16
2019-04-27T18:50:07.458Z,11.99
2019-04-27T18:54:03.543Z,11.86
2019-04-27T18:58:06.963Z,11.87
2019-04-27T19:02:10.460Z,11.95
2019-04-27T19:06:13.956Z,11.94
2019-04-27T19:10:19.242Z,11.85
2019-04-27T19:14:22.824Z,11.82
2019-04-27T19:18:26.323Z,11.69
2019-04-27T19:22:30.013Z,11.60
2019-04-27T19:26:50.732Z,11.44
2019-04-27T19:31:10.696Z,11.21
2019-04-27T19:35:14.202Z,11.19
2019-04-27T19:39:18.203Z,11.13
2019-04-27T19:43:22.275Z,10.90
2019-04-27T19:47:25.765Z,10.82
2019-04-27T19:51:29.237Z,10.74
2019-04-27T19:55:32.745Z,10.74
2019-04-27T19:59:38.133Z,10.67
2019-04-27T20:03:43.381Z,10.53
2019-04-27T20:07:48.239Z,10.44
2019-04-27T20:11:51.971Z,10.48
2019-04-27T20:16:01.305Z,10.41
2019-04-27T20:20:07.175Z,10.43
2019-04-27T20:24:11.818Z,10.47
2019-04-27T20:28:15.692Z,10.30
2019-04-27T20:32:21.368Z,10.23
2019-04-27T20:36:24.548Z,10.12
2019-04-27T20:40:28.034Z,10.10
2019-04-27T20:44:31.535Z,10.09
2019-04-27T20:48:35.024Z,9.93
2019-04-27T20:52:43.177Z,9.91
2019-04-27T20:56:46.648Z,9.85
2019-04-27T21:00:51.792Z,9.80
2019-04-27T21:04:57.287Z,9.82
2019-04-27T21:09:02.858Z,9.80
2019-04-27T21:13:06.220Z,9.83
2019-04-27T21:17:11.712Z,9.66
2019-04-27T21:21:15.272Z,9.60
2019-04-27T21:25:19.014Z,9.56
2019-04-27T21:29:22.694Z,9.49
2019-04-27T21:33:26.205Z,9.45
2019-04-27T21:37:30.745Z,9.48
2019-04-27T21:41:34.535Z,9.53
2019-04-27T21:45:38.324Z,9.27
2019-04-27T21:49:41.917Z,9.32
2019-04-27T21:54:02.419Z,9.39
2019-04-27T21:58:05.892Z,9.41
2019-04-27T22:02:12.094Z,9.45
2019-04-27T22:06:15.974Z,9.37
2019-04-27T22:10:20.921Z,9.32
2019-04-27T22:14:24.429Z,9.39
2019-04-27T22:18:27.904Z,9.42
2019-04-27T22:22:35.751Z,9.48
2019-04-27T22:26:39.346Z,9.57
2019-04-27T22:30:43.706Z,9.55
2019-04-27T22:34:47.209Z,9.53
2019-04-27T22:38:51.634Z,9.64
2019-04-27T22:43:15.292Z,9.57
2019-04-27T22:47:19.151Z,9.61
2019-04-27T22:51:22.641Z,9.70
2019-04-27T22:55:26.261Z,9.62
2019-04-27T22:59:37.561Z,9.68
2019-04-27T23:03:42.674Z,9.72
2019-04-27T23:07:46.157Z,9.80
2019-04-27T23:11:51.535Z,9.78
2019-04-27T23:15:56.705Z,9.71
2019-04-27T23:20:01.345Z,9.78
2019-04-27T23:24:05.083Z,9.74
2019-04-27T23:28:10.188Z,9.70
2019-04-27T23:32:15.373Z,9.77
2019-04-27T23:36:18.864Z,9.82
2019-04-27T23:40:22.616Z,9.78
2019-04-27T23:44:26.090Z,9.70
2019-04-27T23:48:29.562Z,9.74
2019-04-27T23:52:52.506Z,9.68
2019-04-27T23:56:56.202Z,9.63
